Flight Track Log - Related Links

Times and Time Zones

All times are in EDT time to prevent confusion due to time zone crossing. See the AAL963 flight status page for this flight to view local times or setup timezone preferences in your user account.

Time Position Orientation Groundspeed Altitude Reporting Facility
EDT Latitude Longitude Course Direction KTS MPH feet Rate Location/Type
09:17PM 32.9320 -97.0280 North 175 201 2,000  Level FlightAware
09:18PM 32.9580 -97.0220 11° North 206 237 2,200 764 Climbing FlightAware
09:18PM 32.9840 -97.0160 11° North 231 266 2,700 1,418 Climbing FlightAware
09:19PM 33.0160 -97.0070 13° North 240 276 3,500 1,745 Climbing FlightAware
09:19PM 33.0410 -96.9950 22° Northeast 250 288 4,300 1,867 Climbing FlightAware
09:19PM 33.0550 -96.9700 56° Northeast 270 311 4,900 1,714 Climbing FlightAware
09:20PM 33.0570 -96.9490 84° East 280 322 5,300 1,650 Climbing FlightAware
09:20PM 33.0470 -96.9110 107° East 294 338 6,000 1,745 Climbing FlightAware
09:21PM 33.0230 -96.8710 126° Southeast 300 345 6,900 1,636 Climbing FlightAware
09:21PM 33.0000 -96.8350 127° Southeast 314 361 7,500 1,855 Climbing FlightAware
09:22PM 32.9670 -96.8020 140° Southeast 317 365 8,600 1,855 Climbing FlightAware
09:22PM 32.9320 -96.7920 167° South 322 371 9,200 1,371 Climbing FlightAware
09:23PM 32.8640 -96.7940 181° South 337 388 10,200 1,341 Climbing FlightAware
09:23PM 32.7980 -96.7980 183° South 363 418 11,100 1,425 Climbing FlightAware
09:24PM 32.7280 -96.7990 181° South 381 438 12,100 1,765 Climbing FlightAware
09:25PM 32.6510 -96.8020 182° South 389 448 13,600 2,047 Climbing FlightAware
09:25PM 32.5770 -96.8050 182° South 396 456 15,000 2,118 Climbing FlightAware
09:26PM 32.4960 -96.8080 182° South 402 463 16,600 2,118 Climbing FlightAware
09:27PM 32.4170 -96.8110 182° South 409 471 18,000 1,906 Climbing FlightAware
09:28PM 32.3340 -96.8140 182° South 419 482 19,300 1,731 Climbing FlightAware
09:28PM 32.3159 -96.8141 180° South 422 486 19,500 2,118 Climbing FlightAware ADS-B
09:28PM 32.2950 -96.8127 177° South 428 493 19,900 1,862 Climbing FlightAware ADS-B
09:29PM 32.2010 -96.7838 165° South 441 507 21,300 1,725 Climbing FlightAware ADS-B
09:29PM 32.1393 -96.7602 162° South 448 516 22,200 1,652 Climbing FlightAware ADS-B
09:30PM 32.0643 -96.7314 162° South 453 521 23,200 1,588 Climbing FlightAware ADS-B
09:30PM 32.0032 -96.7082 162° South 456 525 24,000 1,548 Climbing FlightAware ADS-B
09:31PM 31.9395 -96.6841 162° South 461 531 24,800 1,355 Climbing FlightAware ADS-B
09:31PM 31.8767 -96.6604 162° South 467 537 25,400 1,258 Climbing FlightAware ADS-B
09:32PM 31.8136 -96.6348 161° South 473 544 26,100 1,279 Climbing FlightAware ADS-B
09:32PM 31.7512 -96.6089 161° South 476 548 26,700 1,219 Climbing FlightAware ADS-B
09:33PM 31.6804 -96.5797 161° South 479 551 27,400 1,031 Climbing FlightAware ADS-B
09:33PM 31.6155 -96.5532 161° South 486 559 27,800 1,000 Climbing FlightAware ADS-B
09:34PM 31.5514 -96.5272 161° South 490 564 28,400 1,065 Climbing FlightAware ADS-B
09:35PM 31.4827 -96.4997 161° South 493 567 28,900 1,048 Climbing FlightAware ADS-B
09:35PM 31.4165 -96.4752 162° South 491 565 29,500 1,180 Climbing FlightAware ADS-B
09:36PM 31.3497 -96.4507 163° South 492 566 30,100 1,180 Climbing FlightAware ADS-B
09:36PM 31.2838 -96.4263 162° South 493 567 30,700 1,034 Climbing FlightAware ADS-B
09:37PM 31.2239 -96.4039 162° South 495 570 31,100 833 Climbing FlightAware ADS-B
09:37PM 31.2052 -96.3953 159° South 501 577 31,200 800 Climbing FlightAware ADS-B
09:37PM 31.1929 -96.3881 153° Southeast 506 582 31,300 1,059 Climbing FlightAware ADS-B
09:37PM 31.1710 -96.3720 148° Southeast 512 589 31,500 947 Climbing FlightAware ADS-B
09:37PM 31.1560 -96.3580 141° Southeast 516 594 31,600 900 Climbing FlightAware ADS-B
09:37PM 31.1364 -96.3349 135° Southeast 523 602 31,800 632 Climbing FlightAware ADS-B
09:37PM 31.1252 -96.3184 128° Southeast 527 606 31,800 486 Level FlightAware ADS-B
09:38PM 31.0815 -96.2478 126° Southeast 533 613 32,100 689 Climbing FlightAware ADS-B
09:38PM 31.0384 -96.1770 125° Southeast 535 616 32,500 787 Climbing FlightAware ADS-B
09:39PM 30.9949 -96.1055 125° Southeast 538 619 32,900 700 Climbing FlightAware ADS-B
09:39PM 30.9516 -96.0347 125° Southeast 540 621 33,200 689 Climbing FlightAware ADS-B
09:40PM 30.9057 -95.9601 126° Southeast 541 623 33,600 968 Climbing FlightAware ADS-B
09:40PM 30.8617 -95.8891 126° Southeast 537 618 34,200 984 Climbing FlightAware ADS-B
09:41PM 30.8178 -95.8184 126° Southeast 535 616 34,600 778 Climbing FlightAware ADS-B
09:41PM 30.7832 -95.7634 126° Southeast 534 615 34,900 436 Climbing FlightAware ADS-B
09:42PM 30.7336 -95.6926 129° Southeast 537 618 35,000 97 Climbing FlightAware ADS-B
09:42PM 30.6813 -95.6285 133° Southeast 533 613 35,000  Level FlightAware ADS-B
09:43PM 30.6272 -95.5687 136° Southeast 531 611 35,000  Level FlightAware ADS-B
09:43PM 30.5732 -95.5098 137° Southeast 531 611 35,000  Level FlightAware ADS-B
09:44PM 30.5157 -95.4472 137° Southeast 531 611 35,000  Level FlightAware ADS-B
09:44PM 30.4617 -95.3883 137° Southeast 531 611 35,000  Level FlightAware ADS-B
09:45PM 30.4068 -95.3283 137° Southeast 530 610 35,000  Level FlightAware ADS-B
09:45PM 30.3521 -95.2685 137° Southeast 527 606 35,000  Level FlightAware ADS-B
09:46PM 30.2970 -95.2086 137° Southeast 528 608 35,000  Level FlightAware ADS-B
09:46PM 30.2424 -95.1492 137° Southeast 528 608 35,000  Level FlightAware ADS-B
09:47PM 30.1860 -95.0880 137° Southeast 528 608 35,000  Level FlightAware ADS-B
09:48PM 30.1320 -95.0296 137° Southeast 528 608 35,000  Level FlightAware ADS-B
09:48PM 30.0771 -94.9702 137° Southeast 527 606 35,000  Level FlightAware ADS-B
09:49PM 30.0232 -94.9121 137° Southeast 526 605 35,000  Level FlightAware ADS-B
09:49PM 29.9697 -94.8545 137° Southeast 525 604 35,000  Level FlightAware ADS-B
09:50PM 29.9163 -94.7970 137° Southeast 525 604 35,000  Level FlightAware ADS-B
09:50PM 29.8622 -94.7389 137° Southeast 524 603 35,000  Level FlightAware ADS-B
09:51PM 29.8074 -94.6801 137° Southeast 524 603 35,000  Level FlightAware ADS-B
09:51PM 29.7534 -94.6224 137° Southeast 525 604 35,000  Level FlightAware ADS-B
09:52PM 29.6999 -94.5652 137° Southeast 526 605 35,000  Level FlightAware ADS-B
09:52PM 29.6462 -94.5080 137° Southeast 526 605 35,000  Level FlightAware ADS-B
09:53PM 29.5924 -94.4505 137° Southeast 527 606 35,000  Level FlightAware ADS-B
09:53PM 29.5379 -94.3926 137° Southeast 527 606 35,000  Level FlightAware ADS-B
09:54PM 29.4839 -94.3352 137° Southeast 527 606 35,000  Level FlightAware ADS-B
09:54PM 29.4298 -94.2778 137° Southeast 527 606 35,000  Level FlightAware ADS-B
09:55PM 29.3745 -94.2189 137° Southeast 529 609 35,000  Level FlightAware ADS-B
09:55PM 29.3204 -94.1613 137° Southeast 529 609 35,000  Level FlightAware ADS-B
09:56PM 29.2665 -94.1041 137° Southeast 527 606 35,000  Level FlightAware ADS-B
09:56PM 29.2128 -94.0472 137° Southeast 527 606 35,000  Level FlightAware ADS-B
09:57PM 29.1583 -93.9896 137° Southeast 529 609 35,000  Level FlightAware ADS-B
09:58PM 29.0433 -93.8667 137° Southeast 527 606 35,000 -44 Level Houston Center
09:59PM 28.9239 -93.7447 138° Southeast 522 601 34,900  Descending Houston Center
10:00PM 28.8267 -93.6422 137° Southeast 527 606 35,000  Climbing Houston Center
10:01PM 28.7072 -93.5147 137° Southeast 531 611 34,900  Descending Houston Center
10:02PM 28.5986 -93.4019 138° Southeast 530 610 35,000 50 Climbing Houston Center
10:03PM 28.5008 -93.3006 138° Southeast 531 611 35,000  Level Houston Center
10:04PM 28.3822 -93.1769 137° Southeast 528 608 35,000  Level Houston Center
10:05PM 28.2728 -93.0628 137° Southeast 534 615 35,000  Level Houston Center
10:11PM 27.5488 -92.3252 137° Southeast 533 613 35,000 -14 Level FlightAware ADS-B
10:12PM 27.4789 -92.2550 137° Southeast 531 611 34,900 -59 Descending Houston Center
10:13PM 27.3686 -92.1442 138° Southeast 532 612 34,900 Level Houston Center
10:15PM 27.2250 -91.9942 137° Southeast  Level FlightAware Approximate
10:22PM 26.4681 -91.3814 143° Southeast  Level FlightAware Approximate
10:23PM 26.3609 -91.2924 143° Southeast  Level FlightAware Approximate
10:24PM 26.2521 -91.2060 145° Southeast  Level FlightAware Approximate
10:25PM 26.1430 -91.1201 145° Southeast  Level FlightAware Approximate
10:26PM 26.0338 -91.0344 145° Southeast  Level FlightAware Approximate
10:27PM 25.9246 -90.9488 145° Southeast  Level FlightAware Approximate
10:28PM 25.8153 -90.8634 145° Southeast  Level FlightAware Approximate
10:29PM 25.7061 -90.7781 145° Southeast  Level FlightAware Approximate
10:30PM 25.5967 -90.6930 145° Southeast  Level FlightAware Approximate
10:31PM 25.4873 -90.6081 145° Southeast  Level FlightAware Approximate
10:32PM 25.3778 -90.5233 145° Southeast  Level FlightAware Approximate
10:33PM 25.2684 -90.4387 145° Southeast  Level FlightAware Approximate
10:34PM 25.1588 -90.3542 145° Southeast  Level FlightAware Approximate
10:35PM 25.0492 -90.2698 145° Southeast  Level FlightAware Approximate
10:36PM 24.9396 -90.1857 145° Southeast  Level FlightAware Approximate
10:37PM 24.8299 -90.1016 145° Southeast  Level FlightAware Approximate
10:38PM 24.7201 -90.0177 145° Southeast  Level FlightAware Approximate
10:39PM 24.6104 -89.9340 145° Southeast  Level FlightAware Approximate
10:40PM 24.5006 -89.8505 145° Southeast  Level FlightAware Approximate
10:41PM 24.4291 -89.7280 119° Southeast  Level FlightAware Approximate
10:42PM 24.3632 -89.6004 120° Southeast  Level FlightAware Approximate
10:43PM 24.2972 -89.4730 120° Southeast  Level FlightAware Approximate
10:44PM 24.2312 -89.3458 120° Southeast  Level FlightAware Approximate
10:45PM 24.1650 -89.2186 120° Southeast  Level FlightAware Approximate
10:46PM 24.0987 -89.0916 120° Southeast  Level FlightAware Approximate
10:47PM 24.0324 -88.9648 119° Southeast  Level FlightAware Approximate
10:48PM 23.9675 -88.8370 119° Southeast  Level FlightAware Approximate
10:49PM 23.9025 -88.7094 119° Southeast  Level FlightAware Approximate
10:50PM 23.8375 -88.5819 119° Southeast  Level FlightAware Approximate
10:51PM 23.7723 -88.4545 119° Southeast  Level FlightAware Approximate
10:52PM 23.7071 -88.3273 119° Southeast  Level FlightAware Approximate
10:53PM 23.6417 -88.2002 119° Southeast  Level FlightAware Approximate
10:54PM 23.5762 -88.0732 119° Southeast  Level FlightAware Approximate
10:55PM 23.5106 -87.9463 119° Southeast  Level FlightAware Approximate
10:56PM 23.4449 -87.8196 119° Southeast  Level FlightAware Approximate
10:57PM 23.3791 -87.6930 119° Southeast  Level FlightAware Approximate
10:58PM 23.3132 -87.5665 120° Southeast  Level FlightAware Approximate
10:59PM 23.2472 -87.4402 120° Southeast  Level FlightAware Approximate
11:00PM 23.1812 -87.3139 120° Southeast  Level FlightAware Approximate
11:01PM 23.1150 -87.1878 120° Southeast  Level FlightAware Approximate
11:02PM 23.0487 -87.0619 120° Southeast  Level FlightAware Approximate
11:03PM 22.9823 -86.9360 120° Southeast  Level FlightAware Approximate
11:04PM 22.9158 -86.8103 120° Southeast  Level FlightAware Approximate
11:05PM 22.8492 -86.6847 120° Southeast  Level FlightAware Approximate
11:06PM 22.7825 -86.5592 120° Southeast  Level FlightAware Approximate
11:07PM 22.7157 -86.4338 120° Southeast  Level FlightAware Approximate
11:08PM 22.6488 -86.3086 120° Southeast  Level FlightAware Approximate
11:09PM 22.5819 -86.1835 120° Southeast  Level FlightAware Approximate
11:10PM 22.5148 -86.0585 120° Southeast  Level FlightAware Approximate
11:11PM 22.4477 -85.9335 120° Southeast  Level FlightAware Approximate
11:12PM 22.3806 -85.8087 120° Southeast  Level FlightAware Approximate
11:13PM 22.3133 -85.6840 120° Southeast  Level FlightAware Approximate
11:14PM 22.2460 -85.5593 121° Southeast  Level FlightAware Approximate
11:15PM 22.1780 -85.4352 121° Southeast  Level FlightAware Approximate
11:16PM 22.1100 -85.3112 121° Southeast  Level FlightAware Approximate
11:17PM 22.0418 -85.1873 121° Southeast  Level FlightAware Approximate
11:18PM 21.9736 -85.0636 121° Southeast  Level FlightAware Approximate
11:19PM 21.9052 -84.9399 121° Southeast  Level FlightAware Approximate
11:20PM 21.8368 -84.8164 121° Southeast  Level FlightAware Approximate
11:21PM 21.7682 -84.6930 121° Southeast  Level FlightAware Approximate
11:22PM 21.6996 -84.5697 121° Southeast  Level FlightAware Approximate
11:23PM 21.6309 -84.4465 121° Southeast  Level FlightAware Approximate
11:24PM 21.5621 -84.3234 121° Southeast  Level FlightAware Approximate
11:25PM 21.4932 -84.2005 121° Southeast  Level FlightAware Approximate
11:26PM 21.4242 -84.0777 121° Southeast  Level FlightAware Approximate
11:27PM 21.3552 -83.9549 121° Southeast  Level FlightAware Approximate
11:28PM 21.2860 -83.8324 121° Southeast  Level FlightAware Approximate
11:29PM 21.2167 -83.7099 121° Southeast  Level FlightAware Approximate
11:30PM 21.1474 -83.5875 121° Southeast  Level FlightAware Approximate
11:31PM 21.0780 -83.4653 121° Southeast  Level FlightAware Approximate
11:32PM 21.0085 -83.3431 121° Southeast  Level FlightAware Approximate
11:33PM 20.9389 -83.2211 121° Southeast  Level FlightAware Approximate
11:34PM 20.8692 -83.0992 121° Southeast  Level FlightAware Approximate
11:35PM 20.7994 -82.9774 121° Southeast  Level FlightAware Approximate
11:36PM 20.7295 -82.8557 122° Southeast  Level FlightAware Approximate
11:37PM 20.6599 -82.7333 121° Southeast  Level FlightAware Approximate
11:38PM 20.5903 -82.6110 121° Southeast  Level FlightAware Approximate
11:39PM 20.5207 -82.4887 121° Southeast  Level FlightAware Approximate
11:40PM 20.4509 -82.3666 121° Southeast  Level FlightAware Approximate
11:41PM 20.3811 -82.2446 121° Southeast  Level FlightAware Approximate
11:42PM 20.3111 -82.1227 121° Southeast  Level FlightAware Approximate
11:43PM 20.2411 -82.0009 121° Southeast  Level FlightAware Approximate
11:44PM 20.1710 -81.8792 122° Southeast  Level FlightAware Approximate
11:45PM 20.1009 -81.7576 122° Southeast  Level FlightAware Approximate
11:46PM 20.0306 -81.6361 122° Southeast  Level FlightAware Approximate
11:47PM 19.9598 -81.5151 122° Southeast  Level FlightAware Approximate
11:48PM 19.8887 -81.3943 122° Southeast  Level FlightAware Approximate
11:49PM 19.8174 -81.2737 122° Southeast  Level FlightAware Approximate
11:50PM 19.7461 -81.1532 122° Southeast  Level FlightAware Approximate
11:51PM 19.6746 -81.0327 122° Southeast  Level FlightAware Approximate
11:52PM 19.6031 -80.9124 122° Southeast  Level FlightAware Approximate
11:53PM 19.5316 -80.7922 122° Southeast  Level FlightAware Approximate
11:54PM 19.4599 -80.6721 122° Southeast  Level FlightAware Approximate
11:55PM 19.3882 -80.5521 122° Southeast  Level FlightAware Approximate
11:56PM 19.3163 -80.4322 122° Southeast  Level FlightAware Approximate
11:57PM 19.2444 -80.3124 122° Southeast  Level FlightAware Approximate
11:58PM 19.1725 -80.1927 122° Southeast  Level FlightAware Approximate
11:59PM 19.1004 -80.0732 123° Southeast  Level FlightAware Approximate
12:00AM 19.0283 -79.9537 123° Southeast  Level FlightAware Approximate
12:01AM 18.9561 -79.8343 123° Southeast  Level FlightAware Approximate
12:02AM 18.8838 -79.7150 123° Southeast  Level FlightAware Approximate
12:03AM 18.8114 -79.5959 123° Southeast  Level FlightAware Approximate
12:04AM 18.7390 -79.4768 123° Southeast  Level FlightAware Approximate
12:05AM 18.6665 -79.3579 123° Southeast  Level FlightAware Approximate
12:06AM 18.5939 -79.2390 123° Southeast  Level FlightAware Approximate
12:07AM 18.5213 -79.1202 123° Southeast  Level FlightAware Approximate
12:08AM 18.4485 -79.0016 123° Southeast  Level FlightAware Approximate
12:09AM 18.3757 -78.8830 123° Southeast  Level FlightAware Approximate
12:10AM 18.3029 -78.7646 123° Southeast  Level FlightAware Approximate
12:11AM 18.2299 -78.6462 123° Southeast  Level FlightAware Approximate
12:12AM 18.1569 -78.5279 123° Southeast  Level FlightAware Approximate
12:13AM 18.0838 -78.4098 123° Southeast  Level FlightAware Approximate
12:14AM 18.0106 -78.2917 123° Southeast  Level FlightAware Approximate
12:15AM 17.9374 -78.1738 123° Southeast  Level FlightAware Approximate
12:16AM 17.8641 -78.0559 123° Southeast  Level FlightAware Approximate
12:17AM 17.7645 -77.9635 142° Southeast  Level FlightAware Approximate
12:18AM 17.6587 -77.8772 142° Southeast  Level FlightAware Approximate
12:19AM 17.5528 -77.7911 142° Southeast  Level FlightAware Approximate
12:20AM 17.4469 -77.7050 142° Southeast  Level FlightAware Approximate
12:21AM 17.3410 -77.6190 142° Southeast  Level FlightAware Approximate
12:22AM 17.2350 -77.5331 142° Southeast  Level FlightAware Approximate
12:23AM 17.1290 -77.4473 142° Southeast  Level FlightAware Approximate
12:24AM 17.0230 -77.3617 142° Southeast  Level FlightAware Approximate
12:25AM 16.9169 -77.2761 142° Southeast  Level FlightAware Approximate
12:26AM 16.8108 -77.1906 142° Southeast  Level FlightAware Approximate
12:27AM 16.7046 -77.1052 142° Southeast  Level FlightAware Approximate
12:28AM 16.5984 -77.0199 142° Southeast  Level FlightAware Approximate
12:29AM 16.4922 -76.9347 142° Southeast  Level FlightAware Approximate
12:30AM 16.3860 -76.8496 142° Southeast  Level FlightAware Approximate
12:31AM 16.2797 -76.7645 142° Southeast  Level FlightAware Approximate
12:32AM 16.1734 -76.6796 143° Southeast  Level FlightAware Approximate
12:33AM 16.0670 -76.5948 143° Southeast  Level FlightAware Approximate
12:34AM 15.9606 -76.5100 143° Southeast  Level FlightAware Approximate
12:35AM 15.8544 -76.4255 143° Southeast  Level FlightAware Approximate
12:36AM 15.7481 -76.3411 143° Southeast  Level FlightAware Approximate
12:37AM 15.6418 -76.2568 143° Southeast  Level FlightAware Approximate
12:38AM 15.5355 -76.1726 143° Southeast  Level FlightAware Approximate
12:39AM 15.4291 -76.0884 143° Southeast  Level FlightAware Approximate
12:40AM 15.3227 -76.0043 143° Southeast  Level FlightAware Approximate
12:41AM 15.2163 -75.9204 143° Southeast  Level FlightAware Approximate
12:42AM 15.1099 -75.8365 143° Southeast  Level FlightAware Approximate
12:43AM 15.0034 -75.7527 143° Southeast  Level FlightAware Approximate
12:44AM 14.8969 -75.6689 143° Southeast  Level FlightAware Approximate
12:45AM 14.7904 -75.5852 143° Southeast  Level FlightAware Approximate
12:46AM 14.6838 -75.5016 143° Southeast  Level FlightAware Approximate
12:47AM 14.5772 -75.4180 143° Southeast  Level FlightAware Approximate
12:48AM 14.4706 -75.3346 143° Southeast  Level FlightAware Approximate
12:49AM 14.3640 -75.2512 143° Southeast  Level FlightAware Approximate
12:50AM 14.2573 -75.1679 143° Southeast  Level FlightAware Approximate
12:51AM 14.1507 -75.0847 143° Southeast  Level FlightAware Approximate
12:52AM 14.0439 -75.0016 143° Southeast  Level FlightAware Approximate
12:53AM 13.9372 -74.9185 143° Southeast  Level FlightAware Approximate
12:54AM 13.8304 -74.8356 143° Southeast  Level FlightAware Approximate
12:55AM 13.7236 -74.7527 143° Southeast  Level FlightAware Approximate
12:56AM 13.6168 -74.6699 143° Southeast  Level FlightAware Approximate
12:57AM 13.5099 -74.5871 143° Southeast  Level FlightAware Approximate
12:58AM 13.4030 -74.5044 143° Southeast  Level FlightAware Approximate
12:59AM 13.2961 -74.4218 143° Southeast  Level FlightAware Approximate
01:00AM 13.1892 -74.3393 143° Southeast  Level FlightAware Approximate
01:01AM 13.0822 -74.2568 143° Southeast  Level FlightAware Approximate
01:02AM 12.9754 -74.1746 143° Southeast  Level FlightAware Approximate
01:03AM 12.8686 -74.0924 143° Southeast  Level FlightAware Approximate
01:04AM 12.7617 -74.0103 143° Southeast  Level FlightAware Approximate
01:05AM 12.6548 -73.9283 143° Southeast  Level FlightAware Approximate
01:06AM 12.5479 -73.8463 143° Southeast  Level FlightAware Approximate
01:07AM 12.4410 -73.7645 143° Southeast  Level FlightAware Approximate
01:08AM 12.3340 -73.6826 143° Southeast  Level FlightAware Approximate
01:09AM 12.2271 -73.6009 143° Southeast  Level FlightAware Approximate
01:10AM 12.1201 -73.5192 143° Southeast  Level FlightAware Approximate
01:11AM 12.0130 -73.4376 143° Southeast  Level FlightAware Approximate
01:12AM 11.9060 -73.3560 143° Southeast  Level FlightAware Approximate
01:13AM 11.7989 -73.2745 143° Southeast  Level FlightAware Approximate
01:14AM 11.6918 -73.1931 143° Southeast  Level FlightAware Approximate
01:15AM 11.5847 -73.1117 143° Southeast  Level FlightAware Approximate
01:16AM 11.4775 -73.0304 143° Southeast  Level FlightAware Approximate
01:17AM 11.3704 -72.9492 143° Southeast  Level FlightAware Approximate
01:18AM 11.2632 -72.8680 143° Southeast  Level FlightAware Approximate
01:19AM 11.1560 -72.7868 143° Southeast  Level FlightAware Approximate
01:20AM 11.0487 -72.7058 143° Southeast  Level FlightAware Approximate
01:21AM 10.9415 -72.6248 143° Southeast  Level FlightAware Approximate
01:22AM 10.8342 -72.5438 143° Southeast  Level FlightAware Approximate
01:23AM 10.7269 -72.4630 143° Southeast  Level FlightAware Approximate
01:24AM 10.6196 -72.3821 143° Southeast  Level FlightAware Approximate
01:25AM 10.5123 -72.3014 143° Southeast  Level FlightAware Approximate
01:26AM 10.4049 -72.2206 144° Southeast  Level FlightAware Approximate
01:27AM 10.2975 -72.1400 144° Southeast  Level FlightAware Approximate
01:28AM 10.1901 -72.0594 144° Southeast  Level FlightAware Approximate
01:29AM 10.0827 -71.9788 144° Southeast  Level FlightAware Approximate
01:30AM 9.9753 -71.8983 144° Southeast  Level FlightAware Approximate
01:31AM 9.8678 -71.8179 144° Southeast  Level FlightAware Approximate
01:32AM 9.7603 -71.7375 144° Southeast  Level FlightAware Approximate
01:33AM 9.6529 -71.6571 144° Southeast  Level FlightAware Approximate
01:34AM 9.5453 -71.5768 144° Southeast  Level FlightAware Approximate
01:35AM 9.4378 -71.4966 144° Southeast  Level FlightAware Approximate
01:36AM 9.3303 -71.4164 144° Southeast  Level FlightAware Approximate
01:37AM 9.2227 -71.3363 144° Southeast  Level FlightAware Approximate
01:38AM 9.1151 -71.2562 144° Southeast  Level FlightAware Approximate
01:39AM 9.0075 -71.1761 144° Southeast  Level FlightAware Approximate
01:40AM 8.8999 -71.0961 144° Southeast  Level FlightAware Approximate
01:41AM 8.7922 -71.0162 144° Southeast  Level FlightAware Approximate
01:42AM 8.6846 -70.9363 144° Southeast  Level FlightAware Approximate
01:43AM 8.5769 -70.8564 144° Southeast  Level FlightAware Approximate
01:44AM 8.4692 -70.7766 144° Southeast  Level FlightAware Approximate
01:45AM 8.3613 -70.6972 144° Southeast  Level FlightAware Approximate
01:46AM 8.2533 -70.6179 144° Southeast  Level FlightAware Approximate
01:47AM 8.1458 -70.5391 144° Southeast  Level FlightAware Approximate
01:48AM 8.0383 -70.4604 144° Southeast  Level FlightAware Approximate
01:49AM 7.9308 -70.3816 144° Southeast  Level FlightAware Approximate
01:50AM 7.8232 -70.3030 144° Southeast  Level FlightAware Approximate
01:51AM 7.7157 -70.2243 144° Southeast  Level FlightAware Approximate
01:52AM 7.6081 -70.1458 144° Southeast  Level FlightAware Approximate
01:53AM 7.5005 -70.0672 144° Southeast  Level FlightAware Approximate
01:54AM 7.3929 -69.9887 144° Southeast  Level FlightAware Approximate
01:55AM 7.2853 -69.9102 144° Southeast  Level FlightAware Approximate
01:56AM 7.1777 -69.8318 144° Southeast  Level FlightAware Approximate
01:57AM 7.0701 -69.7534 144° Southeast  Level FlightAware Approximate
01:58AM 6.9624 -69.6750 144° Southeast  Level FlightAware Approximate
01:59AM 6.8548 -69.5967 144° Southeast  Level FlightAware Approximate
02:00AM 6.7471 -69.5184 144° Southeast  Level FlightAware Approximate
02:01AM 6.6394 -69.4401 144° Southeast  Level FlightAware Approximate
02:02AM 6.5317 -69.3619 144° Southeast  Level FlightAware Approximate
02:03AM 6.4240 -69.2837 144° Southeast  Level FlightAware Approximate
02:04AM 6.3163 -69.2056 144° Southeast  Level FlightAware Approximate
02:05AM 6.2087 -69.1275 144° Southeast  Level FlightAware Approximate
02:06AM 6.1015 -69.0492 144° Southeast  Level FlightAware Approximate
02:07AM 5.9942 -68.9708 144° Southeast  Level FlightAware Approximate
02:08AM 5.8869 -68.8925 144° Southeast  Level FlightAware Approximate
02:09AM 5.7796 -68.8143 144° Southeast  Level FlightAware Approximate
02:10AM 5.6723 -68.7360 144° Southeast  Level FlightAware Approximate
02:11AM 5.5650 -68.6578 144° Southeast  Level FlightAware Approximate
02:12AM 5.4577 -68.5797 144° Southeast  Level FlightAware Approximate
02:13AM 5.3503 -68.5015 144° Southeast  Level FlightAware Approximate
02:14AM 5.2430 -68.4234 144° Southeast  Level FlightAware Approximate
02:15AM 5.1356 -68.3453 144° Southeast  Level FlightAware Approximate
02:16AM 5.0283 -68.2672 144° Southeast  Level FlightAware Approximate
02:17AM 4.9209 -68.1891 144° Southeast  Level FlightAware Approximate
02:18AM 4.8135 -68.1111 144° Southeast  Level FlightAware Approximate
02:19AM 4.7061 -68.0331 144° Southeast  Level FlightAware Approximate
02:20AM 4.5987 -67.9552 144° Southeast  Level FlightAware Approximate
02:21AM 4.4913 -67.8772 144° Southeast  Level FlightAware Approximate
02:22AM 4.3839 -67.7993 144° Southeast  Level FlightAware Approximate
02:23AM 4.2764 -67.7214 144° Southeast  Level FlightAware Approximate
02:24AM 4.1690 -67.6435 144° Southeast  Level FlightAware Approximate
02:25AM 4.0616 -67.5656 144° Southeast  Level FlightAware Approximate
02:26AM 3.9541 -67.4878 144° Southeast  Level FlightAware Approximate
02:27AM 3.8467 -67.4100 144° Southeast  Level FlightAware Approximate
02:28AM 3.7392 -67.3322 144° Southeast  Level FlightAware Approximate
02:29AM 3.6317 -67.2544 144° Southeast  Level FlightAware Approximate
02:30AM 3.5243 -67.1766 144° Southeast  Level FlightAware Approximate
02:31AM 3.4168 -67.0989 144° Southeast  Level FlightAware Approximate
02:32AM 3.3093 -67.0211 144° Southeast  Level FlightAware Approximate
02:33AM 3.2018 -66.9434 144° Southeast  Level FlightAware Approximate
02:34AM 3.0943 -66.8657 144° Southeast  Level FlightAware Approximate
02:35AM 2.9868 -66.7881 144° Southeast  Level FlightAware Approximate
02:36AM 2.8793 -66.7104 144° Southeast  Level FlightAware Approximate
02:37AM 2.7717 -66.6328 144° Southeast  Level FlightAware Approximate
02:38AM 2.6642 -66.5551 144° Southeast  Level FlightAware Approximate
02:39AM 2.5567 -66.4775 144° Southeast  Level FlightAware Approximate
02:40AM 2.4492 -66.3999 144° Southeast  Level FlightAware Approximate
02:41AM 2.3414 -66.3222 144° Southeast  Level FlightAware Approximate
02:42AM 2.2337 -66.2444 144° Southeast  Level FlightAware Approximate
02:43AM 2.1260 -66.1667 144° Southeast  Level FlightAware Approximate
02:44AM 2.0182 -66.0890 144° Southeast  Level FlightAware Approximate
02:45AM 1.9105 -66.0113 144° Southeast  Level FlightAware Approximate
02:46AM 1.8027 -65.9336 144° Southeast  Level FlightAware Approximate
02:47AM 1.6950 -65.8560 144° Southeast  Level FlightAware Approximate
02:48AM 1.5872 -65.7783 144° Southeast  Level FlightAware Approximate
02:49AM 1.4795 -65.7007 144° Southeast  Level FlightAware Approximate
02:50AM 1.3717 -65.6230 144° Southeast  Level FlightAware Approximate
02:51AM 1.2639 -65.5454 144° Southeast  Level FlightAware Approximate
02:52AM 1.1562 -65.4678 144° Southeast  Level FlightAware Approximate
02:53AM 1.0484 -65.3901 144° Southeast  Level FlightAware Approximate
02:54AM 0.9406 -65.3125 144° Southeast  Level FlightAware Approximate
02:55AM 0.8329 -65.2349 144° Southeast  Level FlightAware Approximate
02:56AM 0.7251 -65.1573 144° Southeast  Level FlightAware Approximate
02:57AM 0.6173 -65.0797 144° Southeast  Level FlightAware Approximate
02:58AM 0.5096 -65.0021 144° Southeast  Level FlightAware Approximate
02:59AM 0.4018 -64.9245 144° Southeast  Level FlightAware Approximate
03:00AM 0.2940 -64.8468 144° Southeast  Level FlightAware Approximate
03:01AM 0.1862 -64.7692 144° Southeast  Level FlightAware Approximate
03:02AM 0.0785 -64.6917 144° Southeast  Level FlightAware Approximate
03:03AM -0.0293 -64.6141 144° Southeast  Level FlightAware Approximate
03:04AM -0.1371 -64.5365 144° Southeast  Level FlightAware Approximate
03:05AM -0.2449 -64.4588 144° Southeast  Level FlightAware Approximate
03:06AM -0.3527 -64.3812 144° Southeast  Level FlightAware Approximate
03:07AM -0.4604 -64.3036 144° Southeast  Level FlightAware Approximate
03:08AM -0.5682 -64.2261 144° Southeast  Level FlightAware Approximate
03:09AM -0.6760 -64.1484 144° Southeast  Level FlightAware Approximate
03:10AM -0.7838 -64.0708 144° Southeast  Level FlightAware Approximate
03:11AM -0.8915 -63.9932 144° Southeast  Level FlightAware Approximate
03:12AM -0.9993 -63.9156 144° Southeast  Level FlightAware Approximate
03:13AM -1.1071 -63.8380 144° Southeast  Level FlightAware Approximate
03:14AM -1.2148 -63.7603 144° Southeast  Level FlightAware Approximate
03:15AM -1.3226 -63.6827 144° Southeast  Level FlightAware Approximate
03:16AM -1.4304 -63.6051 144° Southeast  Level FlightAware Approximate
03:17AM -1.5381 -63.5274 144° Southeast  Level FlightAware Approximate
03:18AM -1.6459 -63.4497 144° Southeast  Level FlightAware Approximate
03:19AM -1.7536 -63.3721 144° Southeast  Level FlightAware Approximate
03:20AM -1.8614 -63.2944 144° Southeast  Level FlightAware Approximate
03:21AM -1.9691 -63.2167 144° Southeast  Level FlightAware Approximate
03:22AM -2.0769 -63.1390 144° Southeast  Level FlightAware Approximate
03:23AM -2.1846 -63.0613 144° Southeast  Level FlightAware Approximate
03:24AM -2.2923 -62.9836 144° Southeast  Level FlightAware Approximate
03:25AM -2.4001 -62.9058 144° Southeast  Level FlightAware Approximate
03:26AM -2.5078 -62.8281 144° Southeast  Level FlightAware Approximate
03:27AM -2.6155 -62.7504 144° Southeast  Level FlightAware Approximate
03:28AM -2.7232 -62.6726 144° Southeast  Level FlightAware Approximate
03:29AM -2.8310 -62.5948 144° Southeast  Level FlightAware Approximate
03:30AM -2.9387 -62.5170 144° Southeast  Level FlightAware Approximate
03:31AM -3.0464 -62.4392 144° Southeast  Level FlightAware Approximate
03:32AM -3.1541 -62.3614 144° Southeast  Level FlightAware Approximate
03:33AM -3.2617 -62.2835 144° Southeast  Level FlightAware Approximate
03:34AM -3.3694 -62.2057 144° Southeast  Level FlightAware Approximate
03:35AM -3.4771 -62.1278 144° Southeast  Level FlightAware Approximate
03:36AM -3.5848 -62.0499 144° Southeast  Level FlightAware Approximate
03:37AM -3.6924 -61.9720 144° Southeast  Level FlightAware Approximate
03:38AM -3.8001 -61.8941 144° Southeast  Level FlightAware Approximate
03:39AM -3.9077 -61.8161 144° Southeast  Level FlightAware Approximate
03:40AM -4.0154 -61.7381 144° Southeast  Level FlightAware Approximate
03:41AM -4.1230 -61.6601 144° Southeast  Level FlightAware Approximate
03:42AM -4.2307 -61.5821 144° Southeast  Level FlightAware Approximate
03:43AM -4.3383 -61.5041 144° Southeast  Level FlightAware Approximate
03:44AM -4.4459 -61.4260 144° Southeast  Level FlightAware Approximate
03:45AM -4.5535 -61.3480 144° Southeast  Level FlightAware Approximate
03:46AM -4.6611 -61.2699 144° Southeast  Level FlightAware Approximate
03:47AM -4.7687 -61.1917 144° Southeast  Level FlightAware Approximate
03:48AM -4.8763 -61.1136 144° Southeast  Level FlightAware Approximate
03:49AM -4.9838 -61.0354 144° Southeast  Level FlightAware Approximate
03:50AM -5.0914 -60.9572 144° Southeast  Level FlightAware Approximate
03:51AM -5.1989 -60.8790 144° Southeast  Level FlightAware Approximate
03:52AM -5.3065 -60.8007 144° Southeast  Level FlightAware Approximate
03:53AM -5.4140 -60.7225 144° Southeast  Level FlightAware Approximate
03:54AM -5.5215 -60.6441 144° Southeast  Level FlightAware Approximate
03:55AM -5.6290 -60.5658 144° Southeast  Level FlightAware Approximate
03:56AM -5.7365 -60.4874 144° Southeast  Level FlightAware Approximate
03:57AM -5.8440 -60.4090 144° Southeast  Level FlightAware Approximate
03:58AM -5.9515 -60.3306 144° Southeast  Level FlightAware Approximate
03:59AM -6.0590 -60.2521 144° Southeast  Level FlightAware Approximate
04:00AM -6.1664 -60.1736 144° Southeast  Level FlightAware Approximate
04:01AM -6.2739 -60.0951 144° Southeast  Level FlightAware Approximate
04:02AM -6.3813 -60.0166 144° Southeast  Level FlightAware Approximate
04:03AM -6.4887 -59.9380 144° Southeast  Level FlightAware Approximate
04:04AM -6.5961 -59.8594 144° Southeast  Level FlightAware Approximate
04:05AM -6.7035 -59.7807 144° Southeast  Level FlightAware Approximate
04:06AM -6.8109 -59.7020 144° Southeast  Level FlightAware Approximate
04:07AM -6.9183 -59.6233 144° Southeast  Level FlightAware Approximate
04:08AM -7.0257 -59.5446 144° Southeast  Level FlightAware Approximate
04:09AM -7.1330 -59.4658 144° Southeast  Level FlightAware Approximate
04:10AM -7.2403 -59.3869 144° Southeast  Level FlightAware Approximate
04:11AM -7.3477 -59.3080 144° Southeast  Level FlightAware Approximate
04:12AM -7.4549 -59.2291 144° Southeast  Level FlightAware Approximate
04:13AM -7.5622 -59.1502 144° Southeast  Level FlightAware Approximate
04:14AM -7.6695 -59.0712 144° Southeast  Level FlightAware Approximate
04:15AM -7.7768 -58.9922 144° Southeast  Level FlightAware Approximate
04:16AM -7.8840 -58.9131 144° Southeast  Level FlightAware Approximate
04:17AM -7.9913 -58.8340 144° Southeast  Level FlightAware Approximate
04:18AM -8.0985 -58.7548 144° Southeast  Level FlightAware Approximate
04:19AM -8.2057 -58.6757 144° Southeast  Level FlightAware Approximate
04:20AM -8.3129 -58.5964 144° Southeast  Level FlightAware Approximate
04:21AM -8.4200 -58.5171 144° Southeast  Level FlightAware Approximate
04:22AM -8.5272 -58.4378 144° Southeast  Level FlightAware Approximate
04:23AM -8.6343 -58.3585 144° Southeast  Level FlightAware Approximate
04:24AM -8.7415 -58.2790 144° Southeast  Level FlightAware Approximate
04:25AM -8.8486 -58.1996 144° Southeast  Level FlightAware Approximate
04:26AM -8.9557 -58.1201 144° Southeast  Level FlightAware Approximate
04:27AM -9.0627 -58.0405 144° Southeast  Level FlightAware Approximate
04:28AM -9.1698 -57.9609 144° Southeast  Level FlightAware Approximate
04:29AM -9.2768 -57.8813 144° Southeast  Level FlightAware Approximate
04:30AM -9.3839 -57.8016 144° Southeast  Level FlightAware Approximate
04:31AM -9.4909 -57.7219 144° Southeast  Level FlightAware Approximate
04:32AM -9.5978 -57.6421 144° Southeast  Level FlightAware Approximate
04:33AM -9.7048 -57.5622 144° Southeast  Level FlightAware Approximate
04:34AM -9.8118 -57.4823 144° Southeast  Level FlightAware Approximate
04:35AM -9.9187 -57.4024 144° Southeast  Level FlightAware Approximate
04:36AM -10.0256 -57.3224 144° Southeast  Level FlightAware Approximate
04:37AM -10.1325 -57.2423 144° Southeast  Level FlightAware Approximate
04:38AM -10.2394 -57.1622 144° Southeast  Level FlightAware Approximate
04:39AM -10.3462 -57.0821 144° Southeast  Level FlightAware Approximate
04:40AM -10.4530 -57.0019 144° Southeast  Level FlightAware Approximate
04:41AM -10.5598 -56.9216 144° Southeast  Level FlightAware Approximate
04:42AM -10.6666 -56.8413 144° Southeast  Level FlightAware Approximate
04:43AM -10.7734 -56.7609 144° Southeast  Level FlightAware Approximate
04:44AM -10.8801 -56.6805 144° Southeast  Level FlightAware Approximate
04:45AM -10.9869 -56.6000 143° Southeast  Level FlightAware Approximate
04:46AM -11.0936 -56.5194 143° Southeast  Level FlightAware Approximate
04:47AM -11.2003 -56.4388 143° Southeast  Level FlightAware Approximate
04:48AM -11.3069 -56.3581 143° Southeast  Level FlightAware Approximate
04:49AM -11.4136 -56.2774 143° Southeast  Level FlightAware Approximate
04:50AM -11.5202 -56.1966 143° Southeast  Level FlightAware Approximate
04:51AM -11.6268 -56.1158 143° Southeast  Level FlightAware Approximate
04:52AM -11.7334 -56.0349 143° Southeast  Level FlightAware Approximate
04:53AM -11.8399 -55.9539 143° Southeast  Level FlightAware Approximate
04:54AM -11.9465 -55.8728 143° Southeast  Level FlightAware Approximate
04:55AM -12.0530 -55.7917 143° Southeast  Level FlightAware Approximate
04:56AM -12.1595 -55.7106 143° Southeast  Level FlightAware Approximate
04:57AM -12.2659 -55.6293 143° Southeast  Level FlightAware Approximate
04:58AM -12.3724 -55.5480 143° Southeast  Level FlightAware Approximate
04:59AM -12.4788 -55.4667 143° Southeast  Level FlightAware Approximate
05:00AM -12.5852 -55.3852 143° Southeast  Level FlightAware Approximate
05:01AM -12.6915 -55.3037 143° Southeast  Level FlightAware Approximate
05:02AM -12.7979 -55.2222 143° Southeast  Level FlightAware Approximate
05:03AM -12.9042 -55.1405 143° Southeast  Level FlightAware Approximate
05:04AM -13.0105 -55.0588 143° Southeast  Level FlightAware Approximate
05:05AM -13.1167 -54.9770 143° Southeast  Level FlightAware Approximate
05:06AM -13.2230 -54.8952 143° Southeast  Level FlightAware Approximate
05:07AM -13.3292 -54.8133 143° Southeast  Level FlightAware Approximate
05:08AM -13.4354 -54.7313 143° Southeast  Level FlightAware Approximate
05:09AM -13.5415 -54.6492 143° Southeast  Level FlightAware Approximate
05:10AM -13.6478 -54.5669 143° Southeast  Level FlightAware Approximate
05:11AM -13.7541 -54.4846 143° Southeast  Level FlightAware Approximate
05:12AM -13.8604 -54.4021 143° Southeast  Level FlightAware Approximate
05:13AM -13.9666 -54.3196 143° Southeast  Level FlightAware Approximate
05:14AM -14.0728 -54.2371 143° Southeast  Level FlightAware Approximate
05:15AM -14.1790 -54.1544 143° Southeast  Level FlightAware Approximate
05:16AM -14.2852 -54.0717 143° Southeast  Level FlightAware Approximate
05:17AM -14.3913 -53.9888 143° Southeast  Level FlightAware Approximate
05:18AM -14.4974 -53.9060 143° Southeast  Level FlightAware Approximate
05:19AM -14.6034 -53.8230 143° Southeast  Level FlightAware Approximate
05:20AM -14.7095 -53.7399 143° Southeast  Level FlightAware Approximate
05:21AM -14.8155 -53.6568 143° Southeast  Level FlightAware Approximate
05:22AM -14.9215 -53.5736 143° Southeast  Level FlightAware Approximate
05:23AM -15.0274 -53.4903 143° Southeast  Level FlightAware Approximate
05:24AM -15.1334 -53.4069 143° Southeast  Level FlightAware Approximate
05:25AM -15.2392 -53.3234 143° Southeast  Level FlightAware Approximate
05:26AM -15.3451 -53.2399 143° Southeast  Level FlightAware Approximate
05:27AM -15.4509 -53.1563 143° Southeast  Level FlightAware Approximate
05:28AM -15.5567 -53.0726 143° Southeast  Level FlightAware Approximate
05:29AM -15.6625 -52.9888 143° Southeast  Level FlightAware Approximate
05:30AM -15.7682 -52.9049 143° Southeast  Level FlightAware Approximate
05:31AM -15.8739 -52.8209 143° Southeast  Level FlightAware Approximate
05:32AM -15.9796 -52.7368 143° Southeast  Level FlightAware Approximate
05:33AM -16.0852 -52.6526 143° Southeast  Level FlightAware Approximate
05:34AM -16.1908 -52.5684 143° Southeast  Level FlightAware Approximate
05:35AM -16.2964 -52.4841 143° Southeast  Level FlightAware Approximate
05:36AM -16.4019 -52.3997 143° Southeast  Level FlightAware Approximate
05:37AM -16.5074 -52.3151 142° Southeast  Level FlightAware Approximate
05:38AM -16.6129 -52.2305 142° Southeast  Level FlightAware Approximate
05:39AM -16.7183 -52.1458 142° Southeast  Level FlightAware Approximate
05:40AM -16.8237 -52.0610 142° Southeast  Level FlightAware Approximate
05:41AM -16.9290 -51.9761 142° Southeast  Level FlightAware Approximate
05:42AM -17.0344 -51.8911 142° Southeast  Level FlightAware Approximate
05:43AM -17.1397 -51.8061 142° Southeast  Level FlightAware Approximate
05:44AM -17.2449 -51.7209 142° Southeast  Level FlightAware Approximate
05:45AM -17.3501 -51.6356 142° Southeast  Level FlightAware Approximate
05:46AM -17.4553 -51.5502 142° Southeast  Level FlightAware Approximate
05:47AM -17.5605 -51.4648 142° Southeast  Level FlightAware Approximate
05:48AM -17.6656 -51.3792 142° Southeast  Level FlightAware Approximate
05:49AM -17.7707 -51.2935 142° Southeast  Level FlightAware Approximate
05:50AM -17.8757 -51.2078 142° Southeast  Level FlightAware Approximate
05:51AM -17.9807 -51.1219 142° Southeast  Level FlightAware Approximate
05:52AM -18.0856 -51.0359 142° Southeast  Level FlightAware Approximate
05:53AM -18.1906 -50.9498 142° Southeast  Level FlightAware Approximate
05:54AM -18.2955 -50.8637 142° Southeast  Level FlightAware Approximate
05:54AM -19.6850 -49.3070 142° Southeast 496 571 39,000  Level FlightAware
05:54AM -19.7570 -49.2470 142° Southeast 494 568 39,000  Level FlightAware
05:55AM -19.8450 -49.1730 142° Southeast 494 568 39,000  Level FlightAware
05:56AM -19.9160 -49.1130 142° Southeast 494 568 39,000  Level FlightAware
05:56AM -19.9900 -49.0510 142° Southeast 495 570 39,000  Level FlightAware
05:57AM -20.0620 -48.9900 141° Southeast 494 568 39,000  Level FlightAware
05:58AM -20.1330 -48.9300 142° Southeast 494 568 39,000  Level FlightAware
05:58AM -20.2050 -48.8690 142° Southeast 493 567 39,000  Level FlightAware
05:59AM -20.2970 -48.7920 142° Southeast 494 568 39,000  Level FlightAware
06:00AM -20.3690 -48.7310 142° Southeast 494 568 39,000  Level FlightAware
06:01AM -20.4370 -48.6740 142° Southeast 493 567 39,000  Level FlightAware
06:01AM -20.5010 -48.6190 141° Southeast 493 567 39,000  Level FlightAware
06:02AM -20.5920 -48.5510 145° Southeast 488 562 39,000  Level FlightAware
06:03AM -20.6690 -48.4970 147° Southeast 488 562 39,000  Level FlightAware
06:03AM -20.7590 -48.4320 146° Southeast 488 562 39,000  Level FlightAware
06:04AM -20.8340 -48.3770 146° Southeast 488 562 39,000  Level FlightAware
06:05AM -20.9090 -48.3220 146° Southeast 488 562 39,000  Level FlightAware
06:05AM -20.9850 -48.2660 145° Southeast 489 563 39,000  Level FlightAware
06:06AM -21.0530 -48.2160 146° Southeast 490 564 39,000  Level FlightAware
06:07AM -21.1550 -48.1410 146° Southeast 489 563 39,000  Level FlightAware
06:08AM -21.2480 -48.0750 147° Southeast 490 564 39,000  Level FlightAware
06:09AM -21.3370 -48.0100 146° Southeast 486 559 39,000  Level FlightAware
06:09AM -21.4120 -47.9560 146° Southeast 487 560 39,000  Level FlightAware
06:10AM -21.4990 -47.8930 146° Southeast 489 563 39,000  Level FlightAware
06:11AM -21.5750 -47.8360 145° Southeast 492 566 39,000 -568 Level FlightAware
06:12AM -21.6800 -47.7600 146° Southeast 492 566 38,100 -1,860 Descending FlightAware
06:12AM -21.7680 -47.6950 146° Southeast 507 583 35,900 -3,035 Descending FlightAware
06:13AM -21.8450 -47.6390 146° Southeast 510 587 33,800 -3,040 Descending FlightAware
06:14AM -21.9150 -47.5870 145° Southeast 513 590 32,100 -2,329 Descending FlightAware
06:14AM -22.0130 -47.5150 146° Southeast 504 580 30,500 -2,047 Descending FlightAware
06:15AM -22.0810 -47.4650 146° Southeast 489 563 29,200 -2,025 Descending FlightAware
06:16AM -22.1640 -47.4040 146° Southeast 486 559 27,800 -1,920 Descending FlightAware
06:17AM -22.3500 -47.2660 144° Southeast 467 537 24,400 -1,946 Descending FlightAware
06:18AM -22.3624 -47.2592 144° Southeast  Level Estimated
06:19AM -22.4900 -47.1620 146° Southeast 454 522 21,800  Level FlightAware
06:20AM -22.5700 -47.1050 147° Southeast 445 512 20,400 -1,906 Descending FlightAware
06:20AM -22.6430 -47.0700 156° South 434 499 19,100 -1,943 Descending FlightAware
06:21AM -22.7660 -47.0180 159° South 418 481 17,000 -1,943 Descending FlightAware
06:22AM -22.8370 -46.9880 159° South 418 481 15,700 -2,025 Descending FlightAware
06:23AM -22.9100 -46.9580 159° South 413 475 14,300 -2,118 Descending FlightAware
06:23AM -22.9860 -46.9260 159° South 362 417 12,700 -2,047 Descending FlightAware
06:24AM -23.0450 -46.9010 159° South 314 361 11,400 -1,765 Descending FlightAware
06:25AM -23.1030 -46.8770 159° South 296 341 10,200 -1,371 Descending FlightAware
06:25AM -23.1340 -46.8640 159° South 279 321 9,800 -1,200 Descending FlightAware
06:26AM -23.1710 -46.8480 158° South 275 316 9,100 -1,300 Descending FlightAware
06:26AM -23.2080 -46.8320 158° South 278 320 8,500 -1,200 Descending FlightAware
06:27AM -23.2370 -46.8200 159° South 276 318 8,000 -873 Descending FlightAware
06:27AM -23.2740 -46.8040 158° South 263 303 7,700 -545 Descending FlightAware
06:28AM -23.3010 -46.7930 159° South 240 276 7,500 -450 Descending FlightAware
06:28AM -23.3170 -46.7860 158° South 229 264 7,400 -400 Descending FlightAware
06:28AM -23.3460 -46.7740 159° South 213 245 7,200 -545 Descending FlightAware
06:29AM -23.3700 -46.7630 157° South 224 258 6,900 -873 Descending FlightAware
06:29AM -23.3950 -46.7420 142° Southeast 221 254 6,400 -900 Descending FlightAware
06:30AM -23.4190 -46.7200 140° Southeast 218 251 6,000 -873 Descending FlightAware
06:30AM -23.4360 -46.7030 137° Southeast 210 242 5,600 -873 Descending FlightAware
06:31AM -23.4540 -46.6790 129° Southeast 197 227 5,200 -764 Descending FlightAware
06:31AM -23.4640 -46.6550 114° Southeast 197 227 4,900 -655 Descending FlightAware
06:32AM -23.4740 -46.6290 113° Southeast 187 215 4,600 -436 Descending FlightAware
06:32AM -23.4710 -46.6060 82° East 167 192 4,500 -655 Descending FlightAware
06:32AM -23.4640 -46.5810 73° East 164 189 4,000 -900 Descending FlightAware
06:33AM -23.4580 -46.5590 73° East 154 177 3,600 -800 Descending FlightAware
06:33AM -23.4550 -46.5470 75° East 152 175 3,400 -750 Descending FlightAware
06:34AM -23.4500 -46.5290 73° East 149 171 3,100 -750 Descending FlightAware
06:34AM -23.4470 -46.5180 73° East 149 171 2,900 -800 Descending FlightAware
06:34AM -23.4410 -46.4950 74° East 149 171 2,500 -750 Descending FlightAware
06:35AM -23.4390 -46.4880 73° East 149 171 2,400 -600 Descending FlightAware

Login

Don't have an account? Register now (free) for customized features, flight alerts, and more!